Date,TemperatureHighF,TemperatureAvgF,TemperatureLowF,DewpointHighF,DewpointAvgF,DewpointLowF,HumidityHigh,HumidityAvg,HumidityLow,PressureMaxIn,PressureMinIn,WindSpeedMaxMPH,WindSpeedAvgMPH,GustSpeedMaxMPH,PrecipitationSumIn
2013-3-1,29.8,25.0,18.6,17.0,14.2,10.1,69,63,55,30.31,30.18,0,0,0,0.00
2013-3-2,30.3,21.7,10.7,11.9,8.4,4.1,81,58,35,30.32,30.13,0,0,0,0.00
2013-3-3,32.5,25.8,18.3,12.6,9.0,5.8,64,49,37,30.12,29.92,0,0,0,0.00
2013-3-4,27.3,25.4,23.5,21.2,16.2,8.2,86,69,44,29.99,29.89,0,0,0,0.00
2013-3-5,32.7,26.6,22.2,24.2,21.6,16.7,89,82,69,30.26,29.92,0,0,0,0.00
2013-3-6,31.2,23.6,14.1,18.3,15.5,7.6,81,71,56,30.38,30.25,0,0,0,0.00
2013-3-7,31.5,23.8,10.4,17.7,13.6,4.4,78,65,53,30.33,30.23,0,0,0,0.02
2013-3-8,38.3,30.0,19.1,28.4,22.2,14.5,84,73,61,30.27,30.02,0,0,0,0.04
2013-3-9,36.9,35.3,33.1,35.1,32.8,27.2,94,91,75,30.02,29.63,0,0,0,0.31
2013-3-10,35.2,33.3,30.4,33.6,29.2,24.4,94,85,77,29.88,29.70,0,0,0,0.01
2013-3-11,31.8,28.4,23.0,23.7,20.8,15.9,80,73,64,29.79,29.68,0,0,0,0.00
2013-3-12,30.3,25.2,20.6,18.6,14.5,9.1,76,64,47,30.14,29.77,0,0,0,0.00
2013-3-13,34.0,23.6,13.8,17.2,12.1,8.5,81,63,39,30.33,30.14,0,0,0,0.00
2013-3-14,40.5,31.1,23.9,27.1,22.2,16.0,86,70,57,30.20,29.95,0,0,0,0.01
2013-3-15,34.4,31.6,25.3,30.9,27.1,21.4,89,83,78,29.95,29.77,0,0,0,0.02
2013-3-16,28.8,22.4,14.1,21.4,12.6,2.2,86,67,50,30.20,29.84,0,0,0,0.00
2013-3-17,27.5,18.5,8.1,16.1,4.9,-2.6,64,55,45,30.24,29.83,0,0,0,0.00
2013-3-18,28.7,23.0,12.3,26.1,15.6,4.4,90,73,57,29.83,29.54,0,0,0,0.00
2013-3-19,24.8,14.9,6.5,6.1,1.4,-4.6,71,55,42,30.16,29.77,0,0,0,0.01
2013-3-20,21.8,13.9,4.7,3.0,-1.0,-5.8,61,52,41,30.20,30.08,0,0,0,0.00
2013-3-21,27.8,17.6,4.5,9.5,3.8,-4.4,72,55,40,30.10,30.01,0,0,0,0.01
2013-3-22,37.2,24.0,8.8,16.2,9.4,0.7,74,54,37,30.05,29.98,0,0,0,0.02
2013-3-23,39.3,28.8,17.2,18.7,14.9,8.4,73,57,38,30.10,30.01,0,0,0,0.00
2013-3-24,33.7,30.1,26.9,23.4,20.9,18.1,77,69,56,30.04,29.92,0,0,0,0.00
2013-3-25,39.5,31.4,22.5,20.4,17.5,13.9,69,57,42,30.15,29.98,0,0,0,0.00
2013-3-26,42.5,32.5,26.3,22.0,19.4,17.8,71,59,40,30.24,30.15,0,0,0,0.00
2013-3-27,43.8,32.9,20.8,20.5,18.2,14.4,80,57,33,30.28,30.23,0,0,0,0.00
2013-3-28,45.4,34.5,21.9,25.3,21.0,17.5,86,60,35,30.28,30.21,0,0,0,0.00
2013-3-29,50.2,39.0,30.1,34.1,27.9,20.7,74,65,49,30.22,30.00,0,0,0,0.00
2013-3-30,53.3,43.3,35.0,42.2,35.9,30.7,91,76,58,29.99,29.76,0,0,0,0.22
2013-3-31,42.1,34.3,24.2,30.9,23.2,12.1,90,66,33,30.03,29.73,0,0,0,0.00